createdAt,value
2018-07-22T00:00:54.538Z,28.75
2018-07-22T00:02:34.553Z,28.75
2018-07-22T00:04:23.700Z,24.00
2018-07-22T00:06:00.940Z,23.00
2018-07-22T00:07:38.250Z,26.75
2018-07-22T00:09:18.200Z,28.00
2018-07-22T00:10:55.205Z,28.00
2018-07-22T00:12:33.496Z,30.50
2018-07-22T00:14:10.048Z,29.00
2018-07-22T00:15:49.811Z,28.50
2018-07-22T00:17:26.696Z,48.50
2018-07-22T00:19:03.062Z,29.50
2018-07-22T00:20:39.461Z,28.25
2018-07-22T00:22:16.679Z,30.50
2018-07-22T00:23:54.236Z,28.00
2018-07-22T00:25:30.578Z,28.50
2018-07-22T00:27:07.112Z,31.00
2018-07-22T00:28:43.645Z,31.50
2018-07-22T00:38:41.319Z,29.25
2018-07-22T00:40:18.497Z,32.00
2018-07-22T00:41:55.624Z,32.25
2018-07-22T00:43:32.751Z,30.25
2018-07-22T00:45:14.433Z,29.50
2018-07-22T00:46:51.623Z,31.75
2018-07-22T00:48:28.921Z,29.75
2018-07-22T00:50:05.689Z,29.75
2018-07-22T00:51:42.182Z,31.50
2018-07-22T00:53:20.364Z,30.00
2018-07-22T00:54:58.424Z,29.00
2018-07-22T00:56:36.108Z,30.00
2018-07-22T00:58:12.869Z,28.50
2018-07-22T00:59:51.870Z,29.25
2018-07-22T01:01:28.326Z,27.75
2018-07-22T01:03:05.467Z,29.75
2018-07-22T01:04:42.130Z,31.00
2018-07-22T01:06:18.505Z,29.00
2018-07-22T01:07:55.706Z,29.00
2018-07-22T01:09:33.019Z,28.75
2018-07-22T01:11:11.639Z,29.00
2018-07-22T01:12:49.604Z,27.75
2018-07-22T01:14:26.777Z,29.00
2018-07-22T01:17:30.683Z,29.00
2018-07-22T01:19:08.062Z,27.00
2018-07-22T01:20:46.547Z,30.00
2018-07-22T01:22:24.651Z,29.00
2018-07-22T01:24:07.772Z,26.50
2018-07-22T01:25:45.257Z,24.75
2018-07-22T01:27:23.400Z,28.50
2018-07-22T01:29:02.048Z,26.25
2018-07-22T01:30:38.638Z,31.50
2018-07-22T01:32:15.336Z,29.75
2018-07-22T01:33:52.004Z,29.25
2018-07-22T01:35:29.845Z,28.75
2018-07-22T01:37:06.281Z,27.25
2018-07-22T01:38:43.843Z,28.75
2018-07-22T01:40:20.163Z,30.00
2018-07-22T01:41:58.157Z,29.75
2018-07-22T01:43:37.574Z,30.00
2018-07-22T01:45:15.436Z,28.50
2018-07-22T01:46:51.547Z,31.75
2018-07-22T01:48:27.924Z,28.50
2018-07-22T01:50:06.287Z,30.25
2018-07-22T01:51:44.508Z,28.00
2018-07-22T01:53:29.435Z,29.00
2018-07-22T01:55:06.465Z,28.75
2018-07-22T01:56:44.417Z,30.50
2018-07-22T01:58:23.463Z,29.75
2018-07-22T02:00:01.811Z,30.25
2018-07-22T02:01:39.706Z,30.00
2018-07-22T02:03:17.112Z,29.75
2018-07-22T02:04:54.370Z,28.50
2018-07-22T02:06:32.720Z,27.00
2018-07-22T02:08:12.705Z,28.25
2018-07-22T02:09:51.183Z,31.25
2018-07-22T02:11:29.712Z,30.50
2018-07-22T02:13:07.759Z,30.75
2018-07-22T02:14:45.825Z,28.50
2018-07-22T02:16:22.695Z,29.00
2018-07-22T02:17:58.931Z,29.25
2018-07-22T02:19:36.314Z,32.00
2018-07-22T02:21:13.029Z,32.50
2018-07-22T02:22:49.424Z,32.75
2018-07-22T02:24:25.682Z,34.25
2018-07-22T02:26:03.385Z,31.75
2018-07-22T02:27:40.511Z,31.50
2018-07-22T02:29:18.100Z,31.25
2018-07-22T02:30:55.515Z,29.75
2018-07-22T02:32:32.271Z,31.75
2018-07-22T02:34:09.238Z,29.50
2018-07-22T02:35:46.920Z,32.50
2018-07-22T02:37:24.120Z,33.00
2018-07-22T02:39:03.490Z,32.50
2018-07-22T02:40:41.199Z,31.00
2018-07-22T02:42:19.965Z,35.00
2018-07-22T02:45:43.549Z,33.25
2018-07-22T02:47:20.486Z,33.00
2018-07-22T02:49:01.633Z,33.00
2018-07-22T02:50:38.227Z,31.75
2018-07-22T02:52:15.495Z,33.75
2018-07-22T02:53:53.673Z,36.00
2018-07-22T02:55:30.341Z,35.00
2018-07-22T02:57:10.526Z,32.25
2018-07-22T02:58:49.558Z,32.25
2018-07-22T03:00:27.424Z,35.00
2018-07-22T03:02:04.354Z,34.75
2018-07-22T03:03:42.254Z,35.25
2018-07-22T03:05:19.641Z,34.00
2018-07-22T03:06:56.947Z,33.00
2018-07-22T03:08:33.506Z,32.00
2018-07-22T03:10:10.515Z,30.75
2018-07-22T03:11:48.780Z,31.50
2018-07-22T03:13:27.037Z,30.75
2018-07-22T03:15:03.696Z,31.00
2018-07-22T03:16:40.466Z,31.25
2018-07-22T03:18:19.781Z,33.00
2018-07-22T03:19:57.925Z,33.00
2018-07-22T03:21:35.611Z,32.25
2018-07-22T03:23:14.517Z,32.50
2018-07-22T03:24:52.740Z,32.00
2018-07-22T03:26:32.321Z,32.00
2018-07-22T03:28:11.997Z,33.25
2018-07-22T03:29:48.519Z,32.00
2018-07-22T03:31:26.223Z,32.75
2018-07-22T03:33:06.583Z,35.00
2018-07-22T03:34:43.367Z,31.50
2018-07-22T03:36:21.118Z,32.75
2018-07-22T03:37:57.904Z,33.75
2018-07-22T03:39:34.458Z,32.50
2018-07-22T03:41:13.310Z,34.75
2018-07-22T03:42:49.794Z,34.75
2018-07-22T03:44:31.157Z,31.75
2018-07-22T03:46:09.438Z,34.75
2018-07-22T03:47:48.936Z,34.25
2018-07-22T03:49:25.417Z,35.00
2018-07-22T03:51:04.296Z,35.75
2018-07-22T03:52:42.595Z,34.75
2018-07-22T03:54:19.315Z,36.00
2018-07-22T03:55:57.400Z,35.75
2018-07-22T03:57:36.251Z,34.75
2018-07-22T03:59:15.256Z,34.75
2018-07-22T04:00:52.802Z,34.25
2018-07-22T04:02:29.371Z,33.00
2018-07-22T04:04:07.322Z,35.50
2018-07-22T04:05:45.721Z,36.25
2018-07-22T04:07:25.213Z,38.00
2018-07-22T04:09:03.166Z,35.75
2018-07-22T04:10:40.519Z,37.50
2018-07-22T04:12:22.809Z,36.50
2018-07-22T04:14:05.700Z,37.75
2018-07-22T04:15:47.799Z,33.00
2018-07-22T04:17:32.808Z,39.50
2018-07-22T04:19:28.871Z,39.25
2018-07-22T04:21:07.928Z,37.75
2018-07-22T04:22:45.271Z,36.50
2018-07-22T04:24:26.648Z,36.75
2018-07-22T04:26:07.342Z,35.75
2018-07-22T04:27:51.408Z,38.50
2018-07-22T04:29:34.774Z,38.50
2018-07-22T04:31:16.168Z,39.00
2018-07-22T04:32:58.283Z,39.25
2018-07-22T04:34:40.070Z,37.25
2018-07-22T04:36:27.663Z,37.50
2018-07-22T04:38:09.921Z,34.75
2018-07-22T04:39:55.419Z,36.25
2018-07-22T04:41:36.383Z,35.00
2018-07-22T04:43:21.169Z,38.00
2018-07-22T04:45:03.507Z,34.75
2018-07-22T04:48:38.316Z,38.50
2018-07-22T04:50:22.870Z,37.25
2018-07-22T04:52:03.600Z,36.75
2018-07-22T04:53:57.844Z,37.50
2018-07-22T04:55:40.236Z,35.75
2018-07-22T04:59:12.082Z,36.25
2018-07-22T05:00:51.745Z,35.75
2018-07-22T05:02:32.175Z,36.75
2018-07-22T05:04:12.421Z,38.00
2018-07-22T05:05:56.739Z,33.75
2018-07-22T05:07:36.963Z,37.50
2018-07-22T05:09:14.973Z,38.50
2018-07-22T05:10:57.189Z,37.75
2018-07-22T05:12:37.412Z,36.00
2018-07-22T05:14:20.899Z,37.50
2018-07-22T05:16:03.652Z,39.00
2018-07-22T05:17:45.710Z,35.75
2018-07-22T05:19:30.255Z,38.75
2018-07-22T05:21:08.224Z,38.50
2018-07-22T05:22:56.376Z,34.75
2018-07-22T05:24:33.484Z,37.25
2018-07-22T05:26:11.254Z,36.50
2018-07-22T05:27:47.447Z,35.75
2018-07-22T05:29:24.685Z,38.25
2018-07-22T05:33:59.603Z,36.00
2018-07-22T05:35:37.525Z,34.75
2018-07-22T05:37:17.538Z,37.25
2018-07-22T05:38:54.720Z,35.00
2018-07-22T05:40:34.315Z,35.00
2018-07-22T05:42:10.853Z,35.50
2018-07-22T05:43:50.180Z,35.00
2018-07-22T05:45:30.699Z,35.00
2018-07-22T05:47:07.888Z,37.75
2018-07-22T05:48:46.456Z,36.75
2018-07-22T05:50:23.416Z,36.75
2018-07-22T05:51:59.675Z,34.00
2018-07-22T05:53:36.272Z,37.50
2018-07-22T05:55:13.587Z,34.50
2018-07-22T05:56:51.279Z,36.75
2018-07-22T05:58:27.299Z,35.25
2018-07-22T06:00:05.715Z,34.25
2018-07-22T06:01:43.591Z,38.50
2018-07-22T06:03:21.665Z,37.25
2018-07-22T06:05:00.358Z,35.25
2018-07-22T06:06:38.215Z,37.00
2018-07-22T06:08:15.256Z,35.25
2018-07-22T06:09:52.221Z,34.00
2018-07-22T06:11:28.805Z,34.75
2018-07-22T06:13:07.332Z,36.50
2018-07-22T06:14:45.774Z,33.50
2018-07-22T06:16:23.043Z,34.00
2018-07-22T06:17:59.647Z,35.00
2018-07-22T06:19:37.090Z,35.00
2018-07-22T06:21:14.211Z,37.25
2018-07-22T06:22:50.988Z,34.25
2018-07-22T06:24:28.242Z,37.00
2018-07-22T06:26:05.040Z,34.75
2018-07-22T06:27:42.486Z,34.00
2018-07-22T06:29:19.786Z,31.00
2018-07-22T06:30:59.313Z,34.00
2018-07-22T06:32:36.445Z,36.25
2018-07-22T06:34:12.836Z,36.50
2018-07-22T06:35:52.065Z,35.00
2018-07-22T06:37:31.607Z,35.00
2018-07-22T06:39:14.405Z,33.50
2018-07-22T06:40:51.490Z,34.00
2018-07-22T06:42:27.655Z,34.75
2018-07-22T06:44:04.159Z,34.00
2018-07-22T06:45:41.606Z,31.75
2018-07-22T06:47:18.719Z,36.50
2018-07-22T06:48:56.128Z,34.25
2018-07-22T06:50:32.644Z,34.50
2018-07-22T06:52:10.254Z,32.00
2018-07-22T06:53:46.666Z,33.50
2018-07-22T06:55:23.403Z,34.00
2018-07-22T06:57:01.462Z,32.25
2018-07-22T06:58:37.911Z,31.75
2018-07-22T07:00:18.320Z,31.00
2018-07-22T07:01:56.715Z,32.00
2018-07-22T07:03:33.809Z,33.50
2018-07-22T07:05:13.971Z,31.00
2018-07-22T07:06:50.153Z,34.50
2018-07-22T07:08:27.432Z,32.00
2018-07-22T07:10:05.462Z,32.25
2018-07-22T07:11:42.634Z,31.25
2018-07-22T07:13:19.509Z,30.75
2018-07-22T07:14:59.227Z,32.00
2018-07-22T07:16:37.472Z,34.00
2018-07-22T07:18:14.336Z,33.25
2018-07-22T07:19:50.607Z,33.75
2018-07-22T07:21:28.534Z,33.75
2018-07-22T07:23:04.727Z,31.00
2018-07-22T07:24:41.006Z,30.50
2018-07-22T07:26:18.165Z,34.75
2018-07-22T07:27:54.791Z,32.25
2018-07-22T07:29:31.503Z,32.25
2018-07-22T07:31:08.346Z,33.50
2018-07-22T07:32:47.858Z,34.50
2018-07-22T07:34:28.283Z,34.50
2018-07-22T07:36:04.973Z,32.25
2018-07-22T07:37:41.234Z,31.25
2018-07-22T07:39:20.295Z,31.00
2018-07-22T07:40:59.610Z,31.00
2018-07-22T07:42:36.746Z,29.00
2018-07-22T07:44:13.451Z,30.75
2018-07-22T07:45:51.551Z,27.25
2018-07-22T07:47:27.977Z,28.25
2018-07-22T07:49:04.089Z,26.50
2018-07-22T07:50:41.012Z,29.50
2018-07-22T07:52:18.624Z,27.50
2018-07-22T07:53:55.206Z,27.75
2018-07-22T07:55:31.984Z,27.25
2018-07-22T07:57:08.302Z,24.25
2018-07-22T07:58:45.455Z,21.25
2018-07-22T08:06:29.467Z,26.00
2018-07-22T08:08:06.243Z,25.25
2018-07-22T08:09:42.417Z,24.75
2018-07-22T08:11:18.593Z,22.75
2018-07-22T08:12:56.770Z,24.75
2018-07-22T08:14:33.676Z,24.50
2018-07-22T08:16:09.878Z,20.75
2018-07-22T08:17:46.026Z,20.00
2018-07-22T08:19:22.299Z,19.75
2018-07-22T08:20:58.534Z,24.75
2018-07-22T08:22:37.723Z,28.25
2018-07-22T08:24:14.005Z,22.75
2018-07-22T08:25:51.289Z,21.00
2018-07-22T08:27:28.238Z,19.75
2018-07-22T08:30:15.455Z,21.00
2018-07-22T08:31:53.785Z,22.25
2018-07-22T08:33:30.836Z,19.75
2018-07-22T08:35:08.732Z,22.00
2018-07-22T08:36:48.522Z,19.75
2018-07-22T08:38:26.922Z,16.50
2018-07-22T08:40:05.187Z,19.75
2018-07-22T08:41:42.352Z,19.50
2018-07-22T08:43:20.349Z,20.50
2018-07-22T08:44:57.729Z,22.00
2018-07-22T08:46:35.823Z,21.50
2018-07-22T08:48:12.092Z,19.25
2018-07-22T08:49:48.379Z,21.00
2018-07-22T08:51:24.961Z,18.25
2018-07-22T08:53:01.354Z,22.00
2018-07-22T08:54:37.533Z,21.25
2018-07-22T08:56:13.769Z,17.50
2018-07-22T08:57:50.431Z,22.75
2018-07-22T09:01:01.081Z,19.00
2018-07-22T09:02:39.012Z,19.25
2018-07-22T09:04:17.886Z,21.00
2018-07-22T09:05:58.631Z,18.75
2018-07-22T09:07:35.452Z,22.00
2018-07-22T09:09:14.900Z,22.25
2018-07-22T09:10:51.584Z,21.00
2018-07-22T09:12:27.899Z,18.50
2018-07-22T09:14:04.201Z,19.75
2018-07-22T09:15:43.546Z,28.25
2018-07-22T09:17:24.960Z,20.50
2018-07-22T09:19:01.337Z,19.50
2018-07-22T09:20:37.530Z,22.00
2018-07-22T09:22:15.572Z,20.00
2018-07-22T09:23:52.200Z,19.00
2018-07-22T09:25:28.522Z,18.50
2018-07-22T09:27:05.576Z,19.25
2018-07-22T09:28:43.911Z,20.75
2018-07-22T09:30:22.019Z,18.75
2018-07-22T09:32:00.301Z,16.00
2018-07-22T09:33:37.512Z,18.25
2018-07-22T09:35:13.978Z,21.50
2018-07-22T09:36:52.541Z,20.00
2018-07-22T09:38:30.445Z,19.25
2018-07-22T09:40:07.785Z,19.25
2018-07-22T09:41:44.717Z,16.25
2018-07-22T09:43:21.210Z,16.50
2018-07-22T09:44:57.916Z,17.00
2018-07-22T09:46:34.526Z,16.00
2018-07-22T09:48:10.948Z,18.50
2018-07-22T09:49:48.355Z,17.75
2018-07-22T09:51:26.712Z,18.00
2018-07-22T09:53:02.982Z,18.00
2018-07-22T09:54:40.052Z,16.75
2018-07-22T09:56:17.427Z,17.00
2018-07-22T09:57:54.428Z,17.00
2018-07-22T09:59:30.690Z,14.00
2018-07-22T10:01:10.873Z,16.25
2018-07-22T10:02:50.486Z,16.25
2018-07-22T10:04:28.369Z,14.00
2018-07-22T10:06:04.773Z,15.50
2018-07-22T10:07:43.006Z,15.75
2018-07-22T10:09:19.628Z,16.50
2018-07-22T10:10:55.859Z,15.25
2018-07-22T10:12:33.449Z,17.25
2018-07-22T10:14:11.136Z,16.00
2018-07-22T10:15:47.780Z,16.50
2018-07-22T10:17:24.044Z,15.50
2018-07-22T10:19:00.433Z,16.50
2018-07-22T10:20:37.252Z,18.00
2018-07-22T10:22:14.617Z,18.00
2018-07-22T10:23:51.661Z,17.00
2018-07-22T10:25:28.707Z,16.50
2018-07-22T10:27:07.379Z,15.75
2018-07-22T10:28:44.606Z,16.00
2018-07-22T10:30:24.587Z,17.25
2018-07-22T10:32:01.570Z,16.00
2018-07-22T10:33:40.867Z,18.00
2018-07-22T10:35:17.757Z,14.50
2018-07-22T10:36:53.970Z,17.00
2018-07-22T10:38:30.912Z,17.00
2018-07-22T10:40:08.228Z,17.00
2018-07-22T10:41:45.038Z,18.00
2018-07-22T10:43:23.260Z,18.00
2018-07-22T10:45:00.946Z,18.00
2018-07-22T10:46:37.690Z,17.25
2018-07-22T10:48:14.678Z,17.00
2018-07-22T10:49:51.411Z,19.50
2018-07-22T10:51:27.714Z,16.00
2018-07-22T10:53:08.720Z,18.25
2018-07-22T10:54:51.031Z,18.00
2018-07-22T10:56:27.270Z,15.00
2018-07-22T10:58:03.525Z,16.00
2018-07-22T10:59:39.859Z,16.50
2018-07-22T11:01:16.677Z,15.50
2018-07-22T11:02:53.789Z,16.00
2018-07-22T11:04:31.426Z,15.25
2018-07-22T11:06:08.827Z,18.75
2018-07-22T11:07:47.898Z,17.00
2018-07-22T11:09:28.245Z,16.00
2018-07-22T11:11:08.465Z,19.25
2018-07-22T11:12:46.518Z,19.25
2018-07-22T11:14:23.957Z,19.00
2018-07-22T11:16:02.846Z,16.00
2018-07-22T11:17:39.297Z,18.25
2018-07-22T11:19:15.673Z,16.25
2018-07-22T11:22:24.517Z,17.75
2018-07-22T11:24:00.902Z,14.25
2018-07-22T11:25:37.202Z,17.00
2018-07-22T11:27:15.761Z,16.75
2018-07-22T11:28:54.612Z,16.50
2018-07-22T11:30:31.131Z,16.00
2018-07-22T11:32:11.876Z,17.50
2018-07-22T11:33:49.532Z,18.00
2018-07-22T11:35:27.591Z,17.00
2018-07-22T11:37:05.364Z,13.50
2018-07-22T11:38:48.777Z,15.00
2018-07-22T11:40:27.484Z,16.00
2018-07-22T11:42:04.909Z,16.25
2018-07-22T11:43:41.803Z,16.75
2018-07-22T11:45:26.784Z,18.25
2018-07-22T11:47:06.172Z,15.00
2018-07-22T11:48:42.330Z,13.50
2018-07-22T11:50:18.988Z,13.50
2018-07-22T11:51:55.238Z,15.75
2018-07-22T11:53:33.329Z,17.00
2018-07-22T11:55:12.592Z,15.25
2018-07-22T11:56:48.828Z,16.25
2018-07-22T11:58:26.080Z,19.00
2018-07-22T12:00:03.315Z,14.50
2018-07-22T12:01:41.537Z,16.75
2018-07-22T12:03:19.633Z,16.25
2018-07-22T12:04:57.669Z,16.75
2018-07-22T12:06:34.831Z,18.25
2018-07-22T12:08:11.636Z,17.50
2018-07-22T12:09:48.885Z,19.75
2018-07-22T12:11:26.413Z,18.00
2018-07-22T12:13:03.151Z,22.75
2018-07-22T12:14:39.741Z,22.25
2018-07-22T12:16:16.329Z,22.00
2018-07-22T12:17:52.581Z,22.50
2018-07-22T12:19:29.638Z,19.50
2018-07-22T12:22:54.224Z,20.25
2018-07-22T12:24:30.567Z,21.75
2018-07-22T12:26:07.675Z,21.25
2018-07-22T12:27:43.987Z,20.00
2018-07-22T12:29:22.497Z,20.75
2018-07-22T12:30:59.672Z,20.50
2018-07-22T12:32:36.290Z,19.00
2018-07-22T12:34:12.672Z,19.25
2018-07-22T12:35:51.931Z,20.50
2018-07-22T12:37:28.275Z,20.75
2018-07-22T12:39:07.375Z,20.50
2018-07-22T12:40:45.009Z,21.75
2018-07-22T12:42:22.009Z,17.50
2018-07-22T12:43:58.884Z,19.50
2018-07-22T12:45:37.396Z,24.00
2018-07-22T12:47:16.636Z,27.75
2018-07-22T12:48:55.794Z,25.25
2018-07-22T12:50:33.485Z,19.50
2018-07-22T12:52:10.220Z,23.00
2018-07-22T12:53:46.517Z,21.50
2018-07-22T12:55:23.046Z,19.50
2018-07-22T12:56:59.386Z,18.75
2018-07-22T12:58:38.184Z,18.50
2018-07-22T13:00:19.431Z,18.00
2018-07-22T13:01:57.593Z,16.75
2018-07-22T13:03:34.529Z,20.25
2018-07-22T13:05:13.518Z,18.50
2018-07-22T13:06:50.586Z,20.50
2018-07-22T13:08:27.835Z,17.00
2018-07-22T13:10:06.566Z,17.50
2018-07-22T13:11:45.900Z,19.00
2018-07-22T13:13:23.204Z,19.50
2018-07-22T13:15:01.340Z,22.00
2018-07-22T13:16:38.223Z,18.00
2018-07-22T13:18:15.755Z,19.75
2018-07-22T13:19:52.003Z,22.50
2018-07-22T13:21:29.012Z,21.75
2018-07-22T13:23:05.517Z,22.00
2018-07-22T13:24:42.487Z,20.75
2018-07-22T13:26:19.090Z,18.75
2018-07-22T13:27:55.557Z,19.00
2018-07-22T13:29:31.940Z,16.00
2018-07-22T13:31:08.924Z,18.00
2018-07-22T13:32:46.548Z,19.00
2018-07-22T13:34:22.839Z,17.00
2018-07-22T13:35:59.324Z,17.75
2018-07-22T13:37:35.735Z,18.25
2018-07-22T13:39:13.392Z,17.50
2018-07-22T13:40:54.545Z,18.50
2018-07-22T13:42:35.030Z,19.75
2018-07-22T13:44:13.698Z,17.00
2018-07-22T13:45:52.667Z,15.75
2018-07-22T13:47:30.871Z,17.00
2018-07-22T13:49:10.034Z,15.00
2018-07-22T13:50:48.915Z,16.25
2018-07-22T13:52:25.302Z,17.75
2018-07-22T13:54:02.591Z,18.00
2018-07-22T13:55:40.603Z,17.00
2018-07-22T13:57:17.387Z,17.75
2018-07-22T13:58:57.926Z,19.00
2018-07-22T14:00:35.674Z,17.50
2018-07-22T14:02:15.606Z,19.75
2018-07-22T14:03:52.745Z,17.00
2018-07-22T14:05:31.516Z,16.75
2018-07-22T14:07:11.987Z,16.00
2018-07-22T14:08:50.651Z,19.00
2018-07-22T14:10:29.491Z,17.00
2018-07-22T14:12:07.505Z,17.50
2018-07-22T14:13:47.221Z,16.50
2018-07-22T14:15:29.372Z,17.00
2018-07-22T14:17:06.805Z,16.50
2018-07-22T14:18:44.530Z,16.25
2018-07-22T14:20:21.924Z,16.00
2018-07-22T14:22:00.229Z,17.00
2018-07-22T14:23:38.553Z,16.75
2018-07-22T14:25:19.891Z,19.75
2018-07-22T14:26:57.417Z,18.25
2018-07-22T14:28:35.207Z,20.00
2018-07-22T14:30:11.481Z,18.00
2018-07-22T14:31:47.691Z,17.00
2018-07-22T14:33:23.893Z,18.75
2018-07-22T14:35:00.764Z,18.50
2018-07-22T14:36:39.914Z,19.00
2018-07-22T14:38:17.839Z,18.25
2018-07-22T14:39:56.378Z,16.75
2018-07-22T14:41:36.836Z,19.25
2018-07-22T14:43:14.387Z,16.75
2018-07-22T14:44:52.058Z,20.00
2018-07-22T14:46:31.408Z,19.00
2018-07-22T14:48:08.504Z,21.00
2018-07-22T14:49:46.503Z,22.00
2018-07-22T14:51:24.499Z,21.50
2018-07-22T14:53:08.435Z,23.50
2018-07-22T14:54:52.185Z,18.25
2018-07-22T14:56:28.543Z,20.00
2018-07-22T14:58:07.697Z,19.50
2018-07-22T14:59:46.491Z,19.25
2018-07-22T15:01:23.528Z,21.75
2018-07-22T15:03:02.427Z,18.50
2018-07-22T15:04:39.556Z,21.75
2018-07-22T15:06:17.387Z,20.25
2018-07-22T15:07:54.871Z,20.50
2018-07-22T15:09:31.832Z,20.25
2018-07-22T15:11:08.262Z,18.00
2018-07-22T15:12:44.635Z,21.00
2018-07-22T15:14:23.215Z,23.75
2018-07-22T15:16:00.697Z,23.50
2018-07-22T15:17:38.090Z,20.75
2018-07-22T15:19:16.269Z,22.75
2018-07-22T15:20:54.042Z,22.00
2018-07-22T15:22:30.442Z,20.75
2018-07-22T15:24:07.639Z,21.00
2018-07-22T15:25:45.533Z,20.25
2018-07-22T15:27:23.116Z,21.50
2018-07-22T15:29:01.016Z,19.75
2018-07-22T15:30:38.701Z,22.25
2018-07-22T15:32:15.975Z,20.00
2018-07-22T15:33:53.033Z,22.75
2018-07-22T15:35:30.689Z,22.00
2018-07-22T15:37:07.815Z,23.25
2018-07-22T15:38:44.258Z,22.50
2018-07-22T15:40:23.947Z,20.25
2018-07-22T15:42:03.308Z,21.00
2018-07-22T15:43:40.641Z,25.75
2018-07-22T15:45:20.700Z,25.75
2018-07-22T15:46:59.828Z,26.00
2018-07-22T15:48:40.659Z,20.25
2018-07-22T15:50:18.890Z,23.25
2018-07-22T15:51:56.771Z,30.50
2018-07-22T15:53:34.332Z,22.00
2018-07-22T15:55:12.126Z,25.25
2018-07-22T15:56:49.423Z,24.50
2018-07-22T15:58:25.772Z,23.50
2018-07-22T16:00:03.301Z,23.50
2018-07-22T16:01:40.077Z,22.50
2018-07-22T16:03:18.668Z,24.50
2018-07-22T16:04:55.220Z,23.00
2018-07-22T16:06:40.244Z,20.75
2018-07-22T16:08:16.753Z,21.75
2018-07-22T16:09:54.898Z,24.25
2018-07-22T16:11:31.263Z,22.50
2018-07-22T16:13:10.571Z,21.75
2018-07-22T16:14:49.703Z,19.00
2018-07-22T16:16:30.971Z,23.25
2018-07-22T16:19:43.929Z,22.75
2018-07-22T16:21:21.510Z,22.25
2018-07-22T16:22:58.127Z,18.00
2018-07-22T16:24:34.443Z,20.50
2018-07-22T16:26:12.481Z,18.25
2018-07-22T16:27:49.527Z,22.50
2018-07-22T16:29:27.101Z,18.25
2018-07-22T16:31:04.560Z,21.25
2018-07-22T16:32:42.107Z,21.00
2018-07-22T16:34:19.982Z,24.00
2018-07-22T16:36:01.455Z,24.75
2018-07-22T16:37:38.170Z,22.50
2018-07-22T16:39:16.812Z,25.00
2018-07-22T16:40:54.239Z,22.50
2018-07-22T16:42:30.604Z,22.25
2018-07-22T16:44:08.549Z,23.00
2018-07-22T16:45:46.458Z,25.00
2018-07-22T16:47:24.118Z,24.50
2018-07-22T16:49:01.639Z,26.75
2018-07-22T16:50:40.027Z,27.00
2018-07-22T16:52:18.234Z,26.00
2018-07-22T16:53:55.696Z,25.50
2018-07-22T16:55:32.096Z,24.75
2018-07-22T16:57:08.521Z,24.50
2018-07-22T16:58:45.668Z,25.00
2018-07-22T17:00:22.722Z,27.00
2018-07-22T17:01:59.954Z,26.50
2018-07-22T17:03:37.438Z,27.00
2018-07-22T17:05:13.944Z,26.00
2018-07-22T17:06:50.284Z,26.25
2018-07-22T17:08:26.853Z,25.00
2018-07-22T17:10:03.745Z,25.00
2018-07-22T17:11:40.870Z,25.25
2018-07-22T17:13:17.277Z,27.50
2018-07-22T17:14:58.938Z,25.00
2018-07-22T17:16:36.696Z,26.25
2018-07-22T17:18:13.112Z,28.25
2018-07-22T17:19:52.500Z,26.75
2018-07-22T17:21:29.668Z,27.00
2018-07-22T17:23:07.155Z,26.25
2018-07-22T17:24:45.061Z,28.50
2018-07-22T17:26:22.366Z,26.75
2018-07-22T17:28:01.874Z,35.50
2018-07-22T17:29:42.243Z,29.25
2018-07-22T17:31:32.256Z,25.25
2018-07-22T17:33:09.846Z,26.25
2018-07-22T17:34:48.351Z,27.00
2018-07-22T17:36:28.329Z,23.00
2018-07-22T17:38:05.756Z,23.25
2018-07-22T17:39:49.164Z,25.75
2018-07-22T17:41:27.203Z,25.75
2018-07-22T17:43:08.050Z,23.00
2018-07-22T17:44:47.016Z,40.25
2018-07-22T17:46:24.823Z,27.25
2018-07-22T17:48:02.831Z,26.00
2018-07-22T17:49:41.769Z,26.75
2018-07-22T17:51:20.789Z,26.00
2018-07-22T17:52:59.207Z,23.75
2018-07-22T17:54:52.647Z,23.75
2018-07-22T17:56:36.238Z,27.00
2018-07-22T17:59:55.268Z,24.00
2018-07-22T18:01:36.288Z,25.50
2018-07-22T18:03:26.106Z,23.75
2018-07-22T18:05:05.551Z,23.75
2018-07-22T18:06:44.191Z,25.00
2018-07-22T18:08:23.448Z,27.75
2018-07-22T18:10:01.499Z,23.50
2018-07-22T18:11:38.775Z,23.25
2018-07-22T18:13:17.785Z,27.00
2018-07-22T18:14:54.101Z,24.50
2018-07-22T18:16:33.712Z,25.00
2018-07-22T18:18:11.035Z,20.25
2018-07-22T18:19:50.031Z,24.00
2018-07-22T18:21:28.870Z,23.00
2018-07-22T18:23:11.038Z,23.50
2018-07-22T18:24:47.898Z,22.00
2018-07-22T18:26:24.756Z,21.75
2018-07-22T18:28:02.165Z,25.00
2018-07-22T18:29:39.488Z,21.00
2018-07-22T18:31:18.024Z,25.50
2018-07-22T18:33:02.471Z,24.00
2018-07-22T18:34:41.710Z,28.00
2018-07-22T18:36:20.060Z,20.75
2018-07-22T18:37:58.328Z,22.25
2018-07-22T18:39:48.695Z,25.25
2018-07-22T18:41:25.672Z,22.00
2018-07-22T18:43:03.286Z,25.00
2018-07-22T18:44:42.473Z,24.00
2018-07-22T18:46:20.645Z,24.00
2018-07-22T18:49:03.968Z,23.75
2018-07-22T18:50:42.619Z,23.75
2018-07-22T18:52:18.872Z,22.00
2018-07-22T18:53:55.345Z,22.50
2018-07-22T18:55:31.628Z,22.00
2018-07-22T18:57:09.522Z,22.00
2018-07-22T18:58:46.713Z,24.00
2018-07-22T19:00:26.106Z,24.25
2018-07-22T19:02:03.474Z,22.75
2018-07-22T19:03:49.609Z,22.00
2018-07-22T19:05:33.823Z,29.50
2018-07-22T19:07:13.256Z,24.75
2018-07-22T19:08:51.463Z,24.50
2018-07-22T19:10:28.879Z,29.00
2018-07-22T19:12:05.525Z,26.25
2018-07-22T19:13:43.328Z,35.00
2018-07-22T19:15:21.042Z,36.50
2018-07-22T19:16:59.926Z,39.75
2018-07-22T19:18:42.992Z,37.75
2018-07-22T19:20:24.624Z,46.25
2018-07-22T19:22:08.994Z,28.50
2018-07-22T19:23:46.639Z,33.75
2018-07-22T19:25:26.436Z,23.25
2018-07-22T19:27:05.905Z,28.75
2018-07-22T19:28:44.261Z,22.25
2018-07-22T19:30:27.453Z,27.00
2018-07-22T19:32:06.958Z,27.75
2018-07-22T19:33:46.452Z,24.25
2018-07-22T19:35:29.330Z,24.75
2018-07-22T19:37:07.654Z,20.75
2018-07-22T19:38:49.693Z,21.00
2018-07-22T19:40:27.673Z,18.50
2018-07-22T19:42:06.375Z,17.50
2018-07-22T19:43:47.154Z,16.00
2018-07-22T19:45:30.835Z,15.00
2018-07-22T19:47:11.325Z,14.75
2018-07-22T19:48:52.011Z,13.50
2018-07-22T19:50:30.411Z,16.00
2018-07-22T19:52:08.699Z,13.00
2018-07-22T19:53:50.527Z,14.50
2018-07-22T19:55:28.576Z,15.00
2018-07-22T19:57:06.491Z,14.75
2018-07-22T19:58:56.270Z,13.00
2018-07-22T20:00:34.788Z,13.25
2018-07-22T20:02:13.892Z,13.00
2018-07-22T20:03:53.040Z,12.25
2018-07-22T20:05:31.843Z,13.50
2018-07-22T20:07:10.622Z,13.25
2018-07-22T20:08:49.280Z,12.75
2018-07-22T20:10:29.508Z,11.25
2018-07-22T20:13:41.736Z,14.50
2018-07-22T20:17:09.795Z,13.00
2018-07-22T20:18:48.020Z,15.00
2018-07-22T20:20:24.925Z,12.75
2018-07-22T20:22:07.260Z,13.25
2018-07-22T20:25:46.550Z,12.25
2018-07-22T20:27:31.048Z,13.00
2018-07-22T20:29:09.663Z,13.75
2018-07-22T20:30:54.003Z,13.00
2018-07-22T20:34:08.748Z,19.75
2018-07-22T20:35:46.673Z,11.00
2018-07-22T20:37:23.987Z,11.00
2018-07-22T20:39:01.527Z,11.00
2018-07-22T20:40:40.432Z,14.00
2018-07-22T20:42:18.952Z,10.50
2018-07-22T20:43:55.418Z,11.75
2018-07-22T20:45:33.849Z,11.75
2018-07-22T20:47:14.613Z,11.75
2018-07-22T20:49:07.466Z,12.00
2018-07-22T20:50:49.004Z,11.00
2018-07-22T20:52:31.527Z,13.25
2018-07-22T20:54:09.910Z,11.00
2018-07-22T20:55:52.190Z,10.50
2018-07-22T20:57:31.132Z,10.00
2018-07-22T20:59:14.532Z,10.25
2018-07-22T21:00:58.294Z,11.50
2018-07-22T21:02:38.079Z,9.75
2018-07-22T21:04:21.148Z,11.25
2018-07-22T21:05:59.959Z,9.50
2018-07-22T21:07:41.590Z,11.25
2018-07-22T21:09:24.993Z,11.50
2018-07-22T21:11:06.700Z,10.50
2018-07-22T21:12:59.658Z,9.00
2018-07-22T21:14:48.843Z,13.00
2018-07-22T21:20:17.271Z,13.50
2018-07-22T21:22:01.563Z,12.00
2018-07-22T21:23:41.226Z,9.50
2018-07-22T21:25:19.953Z,11.00
2018-07-22T21:27:01.737Z,12.00
2018-07-22T21:28:43.683Z,11.00
2018-07-22T21:30:21.601Z,10.75
2018-07-22T21:32:15.391Z,11.00
2018-07-22T21:34:13.413Z,10.25
2018-07-22T21:37:52.517Z,9.50
2018-07-22T21:39:32.009Z,12.00
2018-07-22T21:41:23.861Z,12.25
2018-07-22T21:43:11.955Z,11.50
2018-07-22T21:44:50.387Z,10.50
2018-07-22T21:46:29.053Z,11.25
2018-07-22T21:48:24.807Z,10.25
2018-07-22T21:50:16.544Z,11.25
2018-07-22T21:53:59.163Z,11.75
2018-07-22T21:57:55.518Z,12.00
2018-07-22T21:59:36.787Z,11.50
2018-07-22T22:01:33.315Z,12.50